Time;durP1;ratioP1;P1;durP2;ratioP2;P2;SDS_P1;SDS_P2;PMS_P1;PMS_P2;Temp;Humidity;BMP_temperature;BMP_pressure;BME280_temperature;BME280_humidity;BME280_pressure;Samples;Min_cycle;Max_cycle;Signal;HPM_P1;HPM_P2
2023/04/28 00:01:22;;;;;;;10.05;7.35;;;;;;;;;;5078461;27;20043;-73
2023/04/28 00:03:48;;;;;;;10.30;7.53;;;;;;;;;;5087022;27;20059;-73
2023/04/28 00:06:15;;;;;;;11.07;7.35;;;;;;;;;;5091787;27;20079;-73
2023/04/28 00:08:41;;;;;;;10.25;7.38;;;;;;;;;;5092085;27;20040;-73
2023/04/28 00:11:10;;;;;;;11.10;7.15;;;;;;;;;;5085412;27;20052;-73
2023/04/28 00:13:37;;;;;;;13.00;8.30;;;;;;;;;;5089804;27;20039;-73
2023/04/28 00:16:03;;;;;;;9.48;6.93;;;;;;;;;;5089195;27;22402;-73
2023/04/28 00:18:29;;;;;;;14.65;7.57;;;;;;;;;;5086570;27;20047;-73
2023/04/28 00:20:55;;;;;;;11.13;7.95;;;;;;;;;;5089251;27;20055;-73
2023/04/28 00:23:22;;;;;;;10.98;8.30;;;;;;;;;;5082648;27;20138;-73
2023/04/28 00:25:54;;;;;;;12.15;7.60;;;;;;;;;;5090822;27;20074;-73
2023/04/28 00:28:20;;;;;;;15.02;7.57;;;;;;;;;;5091247;27;20047;-73
2023/04/28 00:30:46;;;;;;;11.98;8.05;;;;;;;;;;5093366;27;20035;-73
2023/04/28 00:33:13;;;;;;;14.15;8.32;;;;;;;;;;5082938;27;20080;-73
2023/04/28 00:35:39;;;;;;;11.75;8.35;;;;;;;;;;5081575;27;20766;-73
2023/04/28 00:38:05;;;;;;;11.23;8.00;;;;;;;;;;5082584;27;20089;-73
2023/04/28 00:40:32;;;;;;;9.65;8.07;;;;;;;;;;5091887;27;20043;-73
2023/04/28 00:42:58;;;;;;;11.30;8.50;;;;;;;;;;5093401;27;20039;-73
2023/04/28 00:45:25;;;;;;;11.23;7.72;;;;;;;;;;5092397;27;20032;-73
2023/04/28 00:47:51;;;;;;;10.68;7.95;;;;;;;;;;5087187;27;20081;-73
2023/04/28 00:50:17;;;;;;;9.90;7.88;;;;;;;;;;5086868;27;20036;-73
2023/04/28 00:52:43;;;;;;;10.30;8.30;;;;;;;;;;5088350;27;20043;-73
2023/04/28 00:55:09;;;;;;;11.10;8.00;;;;;;;;;;5091032;27;20132;-73
2023/04/28 00:57:36;;;;;;;16.67;8.70;;;;;;;;;;5091107;27;20699;-73
2023/04/28 01:00:03;;;;;;;11.88;8.55;;;;;;;;;;5090528;27;20047;-73
2023/04/28 01:02:29;;;;;;;10.98;8.45;;;;;;;;;;5091758;27;20512;-73
2023/04/28 01:04:58;;;;;;;11.75;8.77;;;;;;;;;;5089703;27;20727;-73
2023/04/28 01:07:24;;;;;;;19.20;8.90;;;;;;;;;;5090119;27;21041;-73
2023/04/28 01:09:50;;;;;;;14.05;9.07;;;;;;;;;;5088639;27;20039;-73
2023/04/28 01:12:17;;;;;;;14.10;10.48;;;;;;;;;;5065008;27;20116;-73
2023/04/28 01:14:43;;;;;;;14.57;9.40;;;;;;;;;;5088003;27;20047;-73
2023/04/28 01:17:09;;;;;;;14.57;10.18;;;;;;;;;;5088307;27;22024;-73
2023/04/28 01:19:36;;;;;;;17.25;10.65;;;;;;;;;;5086851;27;20048;-73
2023/04/28 01:22:03;;;;;;;14.60;9.88;;;;;;;;;;5084864;27;20150;-73
2023/04/28 01:24:29;;;;;;;13.50;10.00;;;;;;;;;;5080028;27;20067;-73
2023/04/28 01:26:55;;;;;;;15.57;9.30;;;;;;;;;;5098182;27;20143;-73
2023/04/28 01:29:21;;;;;;;17.42;10.43;;;;;;;;;;5084714;27;20500;-73
2023/04/28 01:31:47;;;;;;;16.85;10.18;;;;;;;;;;5088480;27;20035;-73
2023/04/28 01:34:13;;;;;;;12.20;9.98;;;;;;;;;;5087454;27;20043;-73
2023/04/28 01:36:40;;;;;;;19.35;11.02;;;;;;;;;;5085784;27;20075;-72
2023/04/28 01:39:06;;;;;;;14.77;10.70;;;;;;;;;;5087835;27;20075;-73
2023/04/28 01:41:35;;;;;;;18.25;11.18;;;;;;;;;;5084816;27;20102;-73
2023/04/28 01:44:02;;;;;;;16.25;9.98;;;;;;;;;;5089198;27;20118;-73
2023/04/28 01:46:28;;;;;;;19.17;10.68;;;;;;;;;;5087100;27;20051;-73
2023/04/28 01:48:55;;;;;;;17.63;11.15;;;;;;;;;;5086536;27;20044;-73
2023/04/28 01:51:21;;;;;;;15.98;10.65;;;;;;;;;;5088329;27;20607;-73
2023/04/28 01:53:47;;;;;;;19.02;11.40;;;;;;;;;;5085380;27;20043;-73
2023/04/28 01:56:13;;;;;;;15.70;10.70;;;;;;;;;;5069199;27;20495;-72
2023/04/28 01:58:39;;;;;;;13.65;10.60;;;;;;;;;;5085935;27;20121;-73
2023/04/28 02:01:05;;;;;;;14.98;10.40;;;;;;;;;;5087158;27;20048;-73
2023/04/28 02:03:31;;;;;;;15.15;11.13;;;;;;;;;;5083760;27;20046;-72
2023/04/28 02:05:57;;;;;;;16.30;11.15;;;;;;;;;;5085956;27;21358;-72
2023/04/28 02:08:24;;;;;;;15.18;10.48;;;;;;;;;;5071893;27;20050;-72
2023/04/28 02:10:50;;;;;;;20.10;11.50;;;;;;;;;;5085934;27;20500;-72
2023/04/28 02:13:16;;;;;;;18.55;11.25;;;;;;;;;;5085204;27;20077;-72
2023/04/28 02:15:42;;;;;;;14.82;10.70;;;;;;;;;;5086759;27;20488;-72
2023/04/28 02:18:09;;;;;;;15.38;10.75;;;;;;;;;;5083151;27;20039;-73
2023/04/28 02:20:35;;;;;;;15.88;10.32;;;;;;;;;;5088399;27;21709;-72
2023/04/28 02:23:01;;;;;;;16.98;10.75;;;;;;;;;;5088702;27;20115;-73
2023/04/28 02:25:27;;;;;;;14.82;10.95;;;;;;;;;;5065799;28;20046;-73
2023/04/28 02:27:53;;;;;;;14.55;10.32;;;;;;;;;;5071179;28;20051;-73
2023/04/28 02:30:20;;;;;;;19.65;11.00;;;;;;;;;;5086590;28;20538;-73
2023/04/28 02:32:46;;;;;;;16.48;10.30;;;;;;;;;;5086947;27;20054;-71
2023/04/28 02:35:12;;;;;;;17.30;10.93;;;;;;;;;;5089699;27;20043;-71
2023/04/28 02:37:38;;;;;;;13.45;10.45;;;;;;;;;;5089324;27;20166;-71
2023/04/28 02:40:04;;;;;;;13.18;10.38;;;;;;;;;;5083546;27;21306;-74
2023/04/28 02:42:30;;;;;;;14.32;9.70;;;;;;;;;;5089245;28;20088;-73
2023/04/28 02:44:56;;;;;;;18.70;11.48;;;;;;;;;;5080958;28;20054;-74
2023/04/28 02:47:22;;;;;;;15.02;11.07;;;;;;;;;;5086588;27;20051;-74
2023/04/28 02:49:49;;;;;;;14.38;10.70;;;;;;;;;;5082965;27;20388;-74
2023/04/28 02:52:15;;;;;;;15.60;11.30;;;;;;;;;;5084200;27;20080;-73
2023/04/28 02:54:41;;;;;;;15.23;11.23;;;;;;;;;;5084127;27;20035;-74
2023/04/28 02:57:07;;;;;;;20.60;12.60;;;;;;;;;;5084342;27;20055;-74
2023/04/28 02:59:34;;;;;;;18.35;11.10;;;;;;;;;;5084062;27;20074;-74
2023/04/28 03:02:00;;;;;;;18.02;11.90;;;;;;;;;;5078896;27;20031;-74
2023/04/28 03:04:26;;;;;;;17.02;11.70;;;;;;;;;;5085474;27;20044;-74
2023/04/28 03:06:53;;;;;;;16.52;11.00;;;;;;;;;;5085557;27;20058;-74
2023/04/28 03:09:19;;;;;;;15.35;10.95;;;;;;;;;;5085756;27;20055;-72
2023/04/28 03:11:45;;;;;;;17.88;10.80;;;;;;;;;;5085398;27;20065;-72
2023/04/28 03:14:11;;;;;;;15.80;11.23;;;;;;;;;;5091297;28;20044;-72
2023/04/28 03:16:37;;;;;;;16.17;11.25;;;;;;;;;;5089921;28;20048;-72
2023/04/28 03:19:03;;;;;;;22.50;11.15;;;;;;;;;;5089408;27;20444;-72
2023/04/28 03:21:31;;;;;;;18.63;11.68;;;;;;;;;;5092590;27;20027;-72
2023/04/28 03:23:57;;;;;;;23.65;11.60;;;;;;;;;;5093599;27;20112;-72
2023/04/28 03:26:23;;;;;;;18.67;12.00;;;;;;;;;;5089957;27;20049;-72
2023/04/28 03:28:49;;;;;;;18.45;11.70;;;;;;;;;;5092972;27;20050;-72
2023/04/28 03:31:15;;;;;;;21.65;11.90;;;;;;;;;;5090380;27;20047;-72
2023/04/28 03:33:44;;;;;;;19.95;11.57;;;;;;;;;;5091171;27;22478;-72
2023/04/28 03:36:10;;;;;;;14.13;11.32;;;;;;;;;;5087045;27;20046;-72
2023/04/28 03:38:36;;;;;;;21.13;12.07;;;;;;;;;;5067795;27;20051;-72
2023/04/28 03:41:02;;;;;;;18.25;12.43;;;;;;;;;;5073949;27;20058;-72
2023/04/28 03:43:28;;;;;;;22.15;13.25;;;;;;;;;;5077017;27;20127;-72
2023/04/28 03:45:55;;;;;;;18.65;12.15;;;;;;;;;;5080535;27;20046;-72
2023/04/28 03:48:21;;;;;;;20.83;13.20;;;;;;;;;;5087311;27;20040;-72
2023/04/28 03:50:47;;;;;;;19.42;13.75;;;;;;;;;;5067102;27;20122;-71
2023/04/28 03:53:13;;;;;;;23.35;13.98;;;;;;;;;;5088818;27;20046;-72
2023/04/28 03:55:40;;;;;;;21.70;13.75;;;;;;;;;;5084843;27;20039;-74
2023/04/28 03:58:06;;;;;;;22.88;14.75;;;;;;;;;;5082451;27;20074;-72
2023/04/28 04:00:32;;;;;;;19.67;13.50;;;;;;;;;;5081678;27;20043;-72
2023/04/28 04:02:58;;;;;;;21.05;14.05;;;;;;;;;;5081023;27;20055;-72
2023/04/28 04:05:24;;;;;;;21.90;13.50;;;;;;;;;;5081243;27;20048;-75
2023/04/28 04:07:50;;;;;;;20.77;13.35;;;;;;;;;;5083129;27;20048;-73
2023/04/28 04:10:16;;;;;;;20.77;13.82;;;;;;;;;;5086432;27;20035;-73
2023/04/28 04:12:42;;;;;;;21.75;14.48;;;;;;;;;;5087588;27;20504;-73
2023/04/28 04:15:09;;;;;;;24.00;15.02;;;;;;;;;;5084872;27;20050;-74
2023/04/28 04:17:35;;;;;;;28.33;15.88;;;;;;;;;;5086073;27;20052;-74
2023/04/28 04:20:01;;;;;;;26.42;14.65;;;;;;;;;;5084696;27;20043;-73
2023/04/28 04:22:27;;;;;;;21.65;15.07;;;;;;;;;;5085136;27;20039;-73
2023/04/28 04:24:53;;;;;;;21.90;15.07;;;;;;;;;;5082229;27;20047;-73
2023/04/28 04:27:19;;;;;;;28.73;16.25;;;;;;;;;;5084573;27;20047;-73
2023/04/28 04:29:45;;;;;;;24.58;15.10;;;;;;;;;;5086062;27;20053;-73
2023/04/28 04:32:11;;;;;;;19.45;14.68;;;;;;;;;;5083449;27;20200;-73
2023/04/28 04:34:38;;;;;;;19.98;14.65;;;;;;;;;;5083631;27;20222;-73
2023/04/28 04:37:04;;;;;;;24.98;14.90;;;;;;;;;;5083696;27;20054;-73
2023/04/28 04:39:30;;;;;;;22.60;14.70;;;;;;;;;;5080563;27;20055;-73
2023/04/28 04:41:56;;;;;;;24.15;14.82;;;;;;;;;;5079518;27;20877;-73
2023/04/28 04:44:22;;;;;;;22.92;14.63;;;;;;;;;;5085756;27;20048;-73
2023/04/28 04:46:48;;;;;;;28.85;16.15;;;;;;;;;;5100486;27;20294;-73
2023/04/28 04:49:14;;;;;;;23.30;14.07;;;;;;;;;;5056938;27;20043;-74
2023/04/28 04:51:40;;;;;;;22.42;14.30;;;;;;;;;;5082600;27;20134;-74
2023/04/28 04:54:07;;;;;;;23.30;14.27;;;;;;;;;;5084476;27;20048;-74
2023/04/28 04:56:33;;;;;;;24.52;15.10;;;;;;;;;;5081067;27;20071;-74
2023/04/28 04:58:59;;;;;;;26.73;14.90;;;;;;;;;;5082545;27;20695;-74
2023/04/28 05:01:25;;;;;;;22.30;15.00;;;;;;;;;;5083290;27;20047;-74
2023/04/28 05:03:51;;;;;;;20.33;14.45;;;;;;;;;;5082717;27;20055;-74
2023/04/28 05:06:17;;;;;;;24.67;15.70;;;;;;;;;;5086298;27;20054;-74
2023/04/28 05:08:43;;;;;;;22.63;14.98;;;;;;;;;;5085248;27;20185;-74
2023/04/28 05:11:10;;;;;;;24.75;14.75;;;;;;;;;;5087922;27;20063;-74
2023/04/28 05:13:36;;;;;;;23.45;14.82;;;;;;;;;;5086970;27;20077;-74
2023/04/28 05:16:03;;;;;;;22.45;14.90;;;;;;;;;;5086355;27;20847;-74
2023/04/28 05:18:29;;;;;;;22.83;14.85;;;;;;;;;;5085906;27;20104;-74
2023/04/28 05:20:55;;;;;;;20.63;14.15;;;;;;;;;;5063158;27;20047;-74
2023/04/28 05:23:21;;;;;;;22.17;15.32;;;;;;;;;;5084726;27;20107;-74
2023/04/28 05:25:47;;;;;;;23.40;14.77;;;;;;;;;;5086138;27;20676;-74
2023/04/28 05:28:13;;;;;;;19.77;14.43;;;;;;;;;;5088997;27;20046;-74
2023/04/28 05:30:40;;;;;;;23.33;13.95;;;;;;;;;;5087040;27;20047;-73
2023/04/28 05:33:06;;;;;;;20.67;13.88;;;;;;;;;;5080144;27;20054;-74
2023/04/28 05:35:32;;;;;;;20.35;14.35;;;;;;;;;;5085502;27;22190;-74
2023/04/28 05:37:58;;;;;;;22.38;13.65;;;;;;;;;;5086900;27;20051;-74
2023/04/28 05:40:25;;;;;;;22.08;14.48;;;;;;;;;;5087064;27;20066;-74
2023/04/28 05:42:51;;;;;;;23.58;14.90;;;;;;;;;;5078353;27;20783;-74
2023/04/28 05:45:17;;;;;;;21.27;14.27;;;;;;;;;;5087678;27;20129;-74
2023/04/28 05:47:43;;;;;;;20.33;14.00;;;;;;;;;;5086243;27;20043;-74
2023/04/28 05:50:09;;;;;;;21.48;13.68;;;;;;;;;;5073588;27;20109;-73
2023/04/28 05:52:35;;;;;;;24.48;15.18;;;;;;;;;;5087173;27;20040;-74
2023/04/28 05:55:02;;;;;;;23.27;15.05;;;;;;;;;;5088492;27;20044;-74
2023/04/28 05:57:28;;;;;;;24.27;14.57;;;;;;;;;;5088658;27;20043;-74
2023/04/28 05:59:54;;;;;;;21.83;15.38;;;;;;;;;;5088630;27;20533;-74
2023/04/28 06:02:20;;;;;;;21.52;15.13;;;;;;;;;;5089866;27;20436;-74
2023/04/28 06:04:46;;;;;;;23.90;14.30;;;;;;;;;;5090273;27;20154;-74
2023/04/28 06:07:12;;;;;;;23.83;15.35;;;;;;;;;;5092382;27;20120;-74
2023/04/28 06:09:38;;;;;;;18.50;13.90;;;;;;;;;;5091128;27;20049;-74
2023/04/28 06:12:05;;;;;;;23.45;13.57;;;;;;;;;;5091549;27;20146;-74
2023/04/28 06:14:31;;;;;;;24.45;14.77;;;;;;;;;;5089693;27;20066;-74
2023/04/28 06:16:57;;;;;;;23.63;15.63;;;;;;;;;;5087471;27;20176;-74
2023/04/28 06:19:23;;;;;;;20.15;13.95;;;;;;;;;;5089518;27;20047;-74
2023/04/28 06:21:51;;;;;;;20.65;14.85;;;;;;;;;;5086267;27;20134;-73
2023/04/28 06:24:17;;;;;;;21.05;13.65;;;;;;;;;;5090686;27;20055;-73
2023/04/28 06:26:43;;;;;;;24.50;13.70;;;;;;;;;;5086939;27;20502;-72
2023/04/28 06:29:10;;;;;;;22.48;14.50;;;;;;;;;;5088342;27;20071;-73
2023/04/28 06:31:36;;;;;;;20.25;13.57;;;;;;;;;;5080616;28;20043;-72
2023/04/28 06:34:02;;;;;;;23.48;15.25;;;;;;;;;;5085765;27;20135;-73
2023/04/28 06:36:28;;;;;;;20.83;15.02;;;;;;;;;;5086294;27;20047;-73
2023/04/28 06:38:54;;;;;;;19.42;13.82;;;;;;;;;;5087338;28;20039;-73
2023/04/28 06:41:20;;;;;;;19.63;13.38;;;;;;;;;;5064298;28;22531;-73
2023/04/28 06:43:47;;;;;;;19.60;13.80;;;;;;;;;;5089849;28;20088;-73
2023/04/28 06:46:13;;;;;;;21.70;14.10;;;;;;;;;;5088518;27;20833;-73
2023/04/28 06:48:39;;;;;;;20.73;13.75;;;;;;;;;;5087183;27;20051;-73
2023/04/28 06:51:05;;;;;;;19.60;14.25;;;;;;;;;;5073356;28;20046;-73
2023/04/28 06:53:31;;;;;;;18.25;11.98;;;;;;;;;;5086486;27;20040;-73
2023/04/28 06:55:57;;;;;;;17.90;10.75;;;;;;;;;;5088143;27;20086;-72
2023/04/28 06:58:23;;;;;;;15.45;10.43;;;;;;;;;;5089759;27;20043;-73
2023/04/28 07:00:50;;;;;;;13.88;10.07;;;;;;;;;;5092072;27;20039;-72
2023/04/28 07:03:16;;;;;;;15.25;9.65;;;;;;;;;;5072558;27;20090;-72
2023/04/28 07:05:42;;;;;;;19.20;9.90;;;;;;;;;;5091438;27;20055;-73
2023/04/28 07:08:08;;;;;;;15.05;10.50;;;;;;;;;;5093123;27;20047;-72
2023/04/28 07:10:34;;;;;;;13.57;10.23;;;;;;;;;;5090223;27;20046;-73
2023/04/28 07:13:00;;;;;;;15.20;10.38;;;;;;;;;;5084608;27;20089;-73
2023/04/28 07:15:27;;;;;;;14.85;10.43;;;;;;;;;;5093502;27;20049;-72
2023/04/28 07:17:53;;;;;;;15.00;9.57;;;;;;;;;;5090319;27;20047;-72
2023/04/28 07:20:19;;;;;;;20.77;9.48;;;;;;;;;;5070164;27;20043;-73
2023/04/28 07:22:45;;;;;;;15.10;9.15;;;;;;;;;;5095427;27;20047;-73
2023/04/28 07:25:11;;;;;;;11.48;9.88;;;;;;;;;;5095010;27;20044;-72
2023/04/28 07:27:37;;;;;;;15.98;10.50;;;;;;;;;;5098572;27;20545;-72
2023/04/28 07:30:04;;;;;;;16.83;9.57;;;;;;;;;;5092313;27;20066;-73
2023/04/28 07:32:30;;;;;;;13.43;9.77;;;;;;;;;;5096730;27;20469;-73
2023/04/28 07:34:56;;;;;;;18.58;11.98;;;;;;;;;;5095751;27;20051;-73
2023/04/28 07:37:22;;;;;;;18.27;10.82;;;;;;;;;;5092409;27;20130;-72
2023/04/28 07:39:48;;;;;;;15.50;10.13;;;;;;;;;;5079209;27;20050;-73
2023/04/28 07:42:14;;;;;;;13.27;9.27;;;;;;;;;;5094915;27;20047;-73
2023/04/28 07:44:41;;;;;;;20.00;9.73;;;;;;;;;;5095498;27;20043;-72
2023/04/28 07:47:07;;;;;;;13.43;9.55;;;;;;;;;;5094978;27;20093;-73
2023/04/28 07:49:33;;;;;;;20.20;12.52;;;;;;;;;;5097379;27;20134;-73
2023/04/28 07:51:59;;;;;;;15.30;10.13;;;;;;;;;;5094427;27;20040;-73
2023/04/28 07:54:25;;;;;;;14.77;8.90;;;;;;;;;;5090302;27;20035;-73
2023/04/28 07:56:51;;;;;;;13.23;9.30;;;;;;;;;;5094148;27;20059;-73
2023/04/28 07:59:18;;;;;;;16.80;9.18;;;;;;;;;;5074641;27;20149;-73
2023/04/28 08:01:44;;;;;;;19.58;10.20;;;;;;;;;;5086563;27;20042;-73
2023/04/28 08:04:10;;;;;;;17.23;10.45;;;;;;;;;;5095549;27;20047;-73
2023/04/28 08:06:36;;;;;;;12.60;9.52;;;;;;;;;;5080937;28;20036;-73
2023/04/28 08:09:04;;;;;;;12.07;8.68;;;;;;;;;;5094721;27;20043;-73
2023/04/28 08:11:30;;;;;;;13.00;8.65;;;;;;;;;;5095586;27;20071;-68
2023/04/28 08:14:00;;;;;;;17.58;8.80;;;;;;;;;;5094239;27;20990;-75
2023/04/28 08:16:27;;;;;;;13.15;9.27;;;;;;;;;;5094985;27;20101;-73
2023/04/28 08:18:53;;;;;;;15.32;9.50;;;;;;;;;;5096294;27;20043;-73
2023/04/28 08:21:19;;;;;;;16.10;9.73;;;;;;;;;;5097218;27;20068;-73
2023/04/28 08:23:45;;;;;;;16.75;9.73;;;;;;;;;;5086764;27;20078;-73
2023/04/28 08:26:11;;;;;;;20.27;11.18;;;;;;;;;;5092730;27;20074;-73
2023/04/28 08:28:38;;;;;;;14.43;9.10;;;;;;;;;;5084782;27;20039;-73
2023/04/28 08:31:05;;;;;;;11.35;8.75;;;;;;;;;;5090890;27;20043;-73
2023/04/28 08:33:31;;;;;;;12.07;8.88;;;;;;;;;;5095397;27;20039;-72
2023/04/28 08:35:57;;;;;;;10.50;8.70;;;;;;;;;;5068693;27;20934;-72
2023/04/28 08:38:24;;;;;;;12.88;9.18;;;;;;;;;;5096875;27;20050;-71
2023/04/28 08:40:50;;;;;;;11.13;9.18;;;;;;;;;;5092848;27;20050;-72
2023/04/28 08:43:16;;;;;;;12.75;9.65;;;;;;;;;;5090957;27;20046;-72
2023/04/28 08:45:44;;;;;;;12.15;9.30;;;;;;;;;;5093920;27;20055;-72
2023/04/28 08:48:20;;;;;;;13.10;10.43;;;;;;;;;;5062825;27;20544;-73
2023/04/28 08:50:50;;;;;;;15.57;8.75;;;;;;;;;;5091821;27;20050;-81
2023/04/28 08:53:22;;;;;;;13.60;9.13;;;;;;;;;;5093249;27;20140;-82
2023/04/28 08:55:50;;;;;;;16.55;10.52;;;;;;;;;;5105446;27;20077;-81
2023/04/28 08:58:16;;;;;;;13.20;9.52;;;;;;;;;;5091817;27;20039;-80
2023/04/28 09:00:42;;;;;;;16.60;10.25;;;;;;;;;;5091070;27;20043;-81
2023/04/28 09:03:08;;;;;;;12.60;9.05;;;;;;;;;;5091627;27;20050;-81
2023/04/28 09:05:36;;;;;;;13.68;9.80;;;;;;;;;;5088768;27;20051;-81
2023/04/28 09:08:02;;;;;;;14.45;9.65;;;;;;;;;;5086233;27;20523;-79
2023/04/28 09:10:28;;;;;;;17.45;9.65;;;;;;;;;;5088321;27;20043;-81
2023/04/28 09:12:56;;;;;;;20.33;12.07;;;;;;;;;;5065346;27;20055;-82
2023/04/28 09:15:26;;;;;;;12.27;9.35;;;;;;;;;;5092415;27;20042;-81
2023/04/28 09:17:53;;;;;;;12.55;9.25;;;;;;;;;;5087984;27;20070;-81
2023/04/28 09:20:20;;;;;;;15.68;10.20;;;;;;;;;;5088301;27;20039;-80
2023/04/28 09:22:46;;;;;;;15.07;9.25;;;;;;;;;;5083302;27;20048;-81
2023/04/28 09:25:12;;;;;;;14.88;9.75;;;;;;;;;;5085368;27;20043;-80
2023/04/28 09:27:38;;;;;;;10.15;8.93;;;;;;;;;;5086091;27;20043;-80
2023/04/28 09:30:05;;;;;;;15.45;10.00;;;;;;;;;;5088176;27;20043;-82
2023/04/28 09:32:31;;;;;;;16.17;9.60;;;;;;;;;;5088309;27;20039;-81
2023/04/28 09:34:58;;;;;;;18.55;9.35;;;;;;;;;;5087210;27;20047;-82
2023/04/28 09:37:25;;;;;;;13.52;9.77;;;;;;;;;;5087695;27;20055;-81
2023/04/28 09:39:52;;;;;;;15.38;9.68;;;;;;;;;;5089321;27;20058;-81
2023/04/28 09:42:37;;;;;;;15.07;10.13;;;;;;;;;;5077993;27;20439;-82
2023/04/28 09:45:04;;;;;;;15.88;11.70;;;;;;;;;;5093156;27;20075;-81
2023/04/28 09:47:34;;;;;;;15.45;11.05;;;;;;;;;;5089520;27;20115;-81
2023/04/28 09:50:01;;;;;;;14.23;10.88;;;;;;;;;;5088314;27;20905;-80
2023/04/28 09:52:27;;;;;;;14.90;9.35;;;;;;;;;;5079225;27;20075;-80
2023/04/28 09:54:55;;;;;;;15.40;10.48;;;;;;;;;;5088766;27;20047;-81
2023/04/28 09:57:22;;;;;;;17.38;9.82;;;;;;;;;;5095553;27;20047;-81
2023/04/28 09:59:49;;;;;;;12.73;9.77;;;;;;;;;;5089214;27;20054;-82
2023/04/28 10:02:16;;;;;;;14.02;9.73;;;;;;;;;;5103227;27;20081;-80
2023/04/28 10:04:44;;;;;;;13.43;9.23;;;;;;;;;;5097525;27;20043;-81
2023/04/28 10:07:11;;;;;;;12.43;9.30;;;;;;;;;;5090527;27;20158;-83
2023/04/28 10:09:38;;;;;;;11.85;9.73;;;;;;;;;;5098944;27;20130;-82
2023/04/28 10:12:05;;;;;;;17.70;9.45;;;;;;;;;;5093638;27;20086;-80
2023/04/28 10:14:31;;;;;;;12.10;9.43;;;;;;;;;;5096745;27;20878;-81
2023/04/28 10:16:59;;;;;;;14.93;9.70;;;;;;;;;;5091396;27;20043;-80
2023/04/28 10:19:25;;;;;;;12.15;8.65;;;;;;;;;;5097309;27;20078;-80
2023/04/28 10:22:14;;;;;;;11.20;8.63;;;;;;;;;;5093090;27;20039;-81
2023/04/28 10:24:53;;;;;;;11.98;8.52;;;;;;;;;;5091343;27;20206;-81
2023/04/28 10:27:20;;;;;;;13.88;8.63;;;;;;;;;;5091993;27;20058;-80
2023/04/28 10:29:46;;;;;;;13.15;9.00;;;;;;;;;;5094193;27;20047;-80
2023/04/28 10:32:16;;;;;;;12.77;8.90;;;;;;;;;;5092697;28;20046;-80
2023/04/28 10:34:42;;;;;;;13.15;8.77;;;;;;;;;;5092484;28;20598;-81
2023/04/28 10:37:08;;;;;;;11.98;8.25;;;;;;;;;;5101232;27;20479;-83
2023/04/28 10:39:34;;;;;;;15.43;8.63;;;;;;;;;;5082736;28;20864;-81
2023/04/28 10:42:00;;;;;;;15.43;9.65;;;;;;;;;;5091231;28;20047;-81
2023/04/28 10:44:29;;;;;;;13.00;8.73;;;;;;;;;;5097699;27;20035;-80
2023/04/28 10:47:06;;;;;;;10.85;8.40;;;;;;;;;;5093083;28;20066;-79
2023/04/28 10:49:51;;;;;;;13.60;8.63;;;;;;;;;;5096046;28;20245;-81
2023/04/28 10:52:39;;;;;;;20.67;9.57;;;;;;;;;;5095265;27;20032;-81
2023/04/28 10:55:23;;;;;;;13.10;8.65;;;;;;;;;;5094488;28;20599;-81
2023/04/28 10:57:49;;;;;;;;;;;;;;;;;;5098087;27;22072;-80
2023/04/28 11:00:29;;;;;;;11.88;9.00;;;;;;;;;;5098772;27;19924;-81
2023/04/28 11:02:56;;;;;;;12.98;9.45;;;;;;;;;;5097326;27;20047;-81
2023/04/28 11:05:22;;;;;;;11.93;8.57;;;;;;;;;;5090856;28;20172;-81
2023/04/28 11:08:07;;;;;;;11.82;9.18;;;;;;;;;;5099324;27;20040;-80
2023/04/28 11:10:51;;;;;;;9.75;8.18;;;;;;;;;;5097390;28;20039;-80
2023/04/28 11:13:30;;;;;;;12.88;9.10;;;;;;;;;;5097778;27;20048;-80
2023/04/28 11:16:03;;;;;;;13.07;9.57;;;;;;;;;;5093597;27;20040;-81
2023/04/28 11:18:29;;;;;;;13.55;8.60;;;;;;;;;;5103483;27;20582;-79
2023/04/28 11:20:58;;;;;;;15.55;9.27;;;;;;;;;;5091310;27;20091;-80
2023/04/28 11:23:28;;;;;;;13.95;9.18;;;;;;;;;;5096468;28;22025;-79
2023/04/28 11:25:55;;;;;;;14.45;9.20;;;;;;;;;;5093046;28;20108;-79
2023/04/28 11:28:21;;;;;;;18.83;10.30;;;;;;;;;;5097641;27;20439;-78
2023/04/28 11:30:47;;;;;;;12.23;9.23;;;;;;;;;;5095532;27;20084;-78
2023/04/28 11:33:14;;;;;;;13.60;10.15;;;;;;;;;;5070787;28;20134;-79
2023/04/28 11:35:43;;;;;;;16.83;10.77;;;;;;;;;;5093443;27;20135;-78
2023/04/28 11:38:09;;;;;;;15.90;10.63;;;;;;;;;;5092141;27;20395;-76
2023/04/28 11:40:35;;;;;;;14.60;11.07;;;;;;;;;;5088250;28;20126;-77
2023/04/28 11:43:02;;;;;;;17.40;11.27;;;;;;;;;;5093961;27;20180;-77
2023/04/28 11:45:29;;;;;;;21.83;11.60;;;;;;;;;;5076749;27;20039;-77
2023/04/28 11:47:55;;;;;;;17.92;12.32;;;;;;;;;;5092273;27;20050;-78
2023/04/28 11:50:37;;;;;;;13.18;10.98;;;;;;;;;;5089810;27;20035;-76
2023/04/28 11:53:03;;;;;;;15.55;11.65;;;;;;;;;;5093578;27;20047;-77
2023/04/28 11:55:29;;;;;;;19.77;12.93;;;;;;;;;;5093287;27;20036;-78
2023/04/28 11:58:14;;;;;;;19.23;12.90;;;;;;;;;;5089049;27;20042;-78
2023/04/28 12:00:41;;;;;;;19.42;12.90;;;;;;;;;;5092409;27;20512;-78
2023/04/28 12:03:07;;;;;;;25.05;13.75;;;;;;;;;;5092832;27;20488;-78
2023/04/28 12:05:34;;;;;;;23.90;14.02;;;;;;;;;;5095492;27;21601;-78
2023/04/28 12:08:01;;;;;;;19.08;13.93;;;;;;;;;;5086869;27;20066;-81
2023/04/28 12:10:27;;;;;;;22.48;13.77;;;;;;;;;;5093559;27;20043;-80
2023/04/28 12:12:53;;;;;;;23.50;13.57;;;;;;;;;;5092146;27;20584;-81
2023/04/28 12:15:20;;;;;;;19.85;14.93;;;;;;;;;;5072855;27;21555;-79
2023/04/28 12:17:46;;;;;;;27.10;14.25;;;;;;;;;;5094989;27;20099;-79
2023/04/28 12:20:33;;;;;;;19.63;12.70;;;;;;;;;;5090500;27;20566;-79
2023/04/28 12:22:59;;;;;;;17.83;12.98;;;;;;;;;;5092963;27;20088;-78
2023/04/28 12:25:25;;;;;;;21.92;13.35;;;;;;;;;;5097524;27;20047;-78
2023/04/28 12:28:03;;;;;;;20.33;13.57;;;;;;;;;;5080909;27;20124;-78
2023/04/28 12:30:30;;;;;;;19.05;13.73;;;;;;;;;;5091609;27;21826;-79
2023/04/28 12:32:57;;;;;;;19.55;13.38;;;;;;;;;;5092614;27;21561;-79
2023/04/28 12:35:24;;;;;;;16.50;13.80;;;;;;;;;;5091772;27;20047;-79
2023/04/28 12:37:51;;;;;;;18.23;13.73;;;;;;;;;;5090803;27;20170;-79
2023/04/28 12:40:17;;;;;;;18.23;14.23;;;;;;;;;;5097038;27;20609;-79
2023/04/28 12:42:44;;;;;;;17.15;13.43;;;;;;;;;;5093431;27;20076;-77
2023/04/28 12:45:10;;;;;;;21.92;14.63;;;;;;;;;;5096358;27;21900;-80
2023/04/28 12:47:37;;;;;;;20.48;14.50;;;;;;;;;;5093003;27;20043;-80
2023/04/28 12:50:03;;;;;;;22.73;13.23;;;;;;;;;;5094838;27;20048;-81
2023/04/28 12:52:32;;;;;;;19.35;14.07;;;;;;;;;;5076091;27;20051;-81
2023/04/28 12:54:58;;;;;;;22.50;14.63;;;;;;;;;;5092918;27;21955;-79
2023/04/28 12:57:28;;;;;;;24.48;14.90;;;;;;;;;;5096314;27;20058;-80
2023/04/28 12:59:55;;;;;;;21.70;15.38;;;;;;;;;;5095746;27;20054;-80
2023/04/28 13:02:22;;;;;;;23.15;15.40;;;;;;;;;;5097189;27;20676;-80
2023/04/28 13:04:48;;;;;;;23.55;17.20;;;;;;;;;;5104005;27;20089;-80
2023/04/28 13:07:14;;;;;;;21.67;15.00;;;;;;;;;;5102434;27;20564;-80
2023/04/28 13:09:45;;;;;;;18.58;15.43;;;;;;;;;;5102048;27;20115;-78
2023/04/28 13:12:13;;;;;;;22.42;16.27;;;;;;;;;;5095830;27;20576;-79
2023/04/28 13:14:39;;;;;;;22.83;15.68;;;;;;;;;;5095848;27;20495;-79
2023/04/28 13:17:05;;;;;;;18.35;15.65;;;;;;;;;;5085081;27;20040;-78
2023/04/28 13:19:33;;;;;;;21.55;15.70;;;;;;;;;;5116815;27;20048;-77
2023/04/28 13:21:59;;;;;;;19.80;15.82;;;;;;;;;;5096258;27;20047;-77
2023/04/28 13:24:25;;;;;;;20.92;16.05;;;;;;;;;;5097759;27;20126;-77
2023/04/28 13:26:51;;;;;;;22.85;17.35;;;;;;;;;;5101604;27;20078;-78
2023/04/28 13:29:18;;;;;;;25.02;18.48;;;;;;;;;;5085807;27;20043;-79
2023/04/28 13:31:44;;;;;;;19.13;16.85;;;;;;;;;;5103424;27;20071;-78
2023/04/28 13:34:14;;;;;;;21.13;16.98;;;;;;;;;;5102438;27;20070;-78
2023/04/28 13:36:41;;;;;;;25.08;16.45;;;;;;;;;;5102444;27;20068;-79
2023/04/28 13:39:10;;;;;;;23.48;18.85;;;;;;;;;;5102916;27;20056;-79
2023/04/28 13:41:37;;;;;;;24.98;18.08;;;;;;;;;;5084449;27;20067;-79
2023/04/28 13:44:06;;;;;;;27.35;18.45;;;;;;;;;;5115986;27;20036;-78
2023/04/28 13:46:32;;;;;;;20.55;17.45;;;;;;;;;;5102515;27;20050;-79
2023/04/28 13:48:59;;;;;;;22.88;17.38;;;;;;;;;;5102958;27;20055;-78
2023/04/28 13:51:25;;;;;;;24.30;18.92;;;;;;;;;;5089440;27;20042;-79
2023/04/28 13:53:51;;;;;;;28.30;18.08;;;;;;;;;;5100642;27;20046;-78
2023/04/28 13:56:17;;;;;;;29.88;20.63;;;;;;;;;;5095926;27;20096;-79
2023/04/28 13:58:43;;;;;;;24.15;18.88;;;;;;;;;;5086783;27;20031;-77
2023/04/28 14:01:09;;;;;;;22.67;18.33;;;;;;;;;;5091979;27;20044;-77
2023/04/28 14:03:36;;;;;;;30.80;20.40;;;;;;;;;;5091006;27;20047;-76
2023/04/28 14:06:03;;;;;;;29.75;20.13;;;;;;;;;;5091841;27;20048;-76
2023/04/28 14:08:29;;;;;;;27.25;20.85;;;;;;;;;;5089576;27;20104;-76
2023/04/28 14:10:55;;;;;;;30.25;21.42;;;;;;;;;;5087711;27;20856;-79
2023/04/28 14:13:21;;;;;;;29.95;20.17;;;;;;;;;;5088397;27;20051;-79
2023/04/28 14:15:47;;;;;;;27.05;21.27;;;;;;;;;;5089559;27;20055;-78
2023/04/28 14:18:13;;;;;;;34.03;22.50;;;;;;;;;;5090349;27;20128;-78
2023/04/28 14:20:40;;;;;;;32.47;21.77;;;;;;;;;;5091785;27;20052;-78